createdAt,value
2019-01-20T00:02:03.007Z,-4.35
2019-01-20T00:04:29.273Z,-4.33
2019-01-20T00:06:58.198Z,-4.37
2019-01-20T00:09:24.028Z,-4.37
2019-01-20T00:11:52.907Z,-4.39
2019-01-20T00:14:19.005Z,-4.40
2019-01-20T00:16:47.977Z,-4.47
2019-01-20T00:19:13.803Z,-4.45
2019-01-20T00:21:42.626Z,-4.55
2019-01-20T00:24:08.558Z,-4.56
2019-01-20T00:26:34.442Z,-4.61
2019-01-20T00:29:00.326Z,-4.65
2019-01-20T00:31:26.126Z,-4.60
2019-01-20T00:33:54.767Z,-4.62
2019-01-20T00:36:20.894Z,-4.66
2019-01-20T00:38:49.766Z,-4.62
2019-01-20T00:41:15.631Z,-4.56
2019-01-20T00:43:44.265Z,-4.45
2019-01-20T00:46:10.190Z,-4.38
2019-01-20T00:48:39.064Z,-4.26
2019-01-20T00:51:05.269Z,-4.31
2019-01-20T00:53:33.897Z,-4.41
2019-01-20T00:55:59.731Z,-4.47
2019-01-20T00:58:28.637Z,-4.50
2019-01-20T01:01:16.323Z,-4.51
2019-01-20T01:03:42.279Z,-4.50
2019-01-20T01:06:08.149Z,-4.46
2019-01-20T01:08:33.971Z,-4.41
2019-01-20T01:11:00.199Z,-4.38
2019-01-20T01:13:26.323Z,-4.36
2019-01-20T01:15:52.470Z,-4.38
2019-01-20T01:18:18.599Z,-4.36
2019-01-20T01:20:44.693Z,-4.46
2019-01-20T01:23:10.655Z,-4.45
2019-01-20T01:25:36.487Z,-4.54
2019-01-20T01:28:02.819Z,-4.62
2019-01-20T01:30:28.630Z,-4.64
2019-01-20T01:32:54.751Z,-4.60
2019-01-20T01:35:20.852Z,-4.58
2019-01-20T01:37:47.302Z,-4.64
2019-01-20T01:40:14.927Z,-4.67
2019-01-20T01:42:40.996Z,-4.79
2019-01-20T01:45:10.008Z,-4.88
2019-01-20T01:47:35.838Z,-4.91
2019-01-20T01:50:02.093Z,-4.93
2019-01-20T01:52:27.898Z,-4.99
2019-01-20T01:54:53.781Z,-5.00
2019-01-20T01:57:19.894Z,-4.98
2019-01-20T01:59:45.808Z,-4.93
2019-01-20T02:02:11.586Z,-4.87
2019-01-20T02:04:37.425Z,-4.81
2019-01-20T02:07:03.888Z,-4.74
2019-01-20T02:09:29.713Z,-4.71
2019-01-20T02:11:58.790Z,-4.75
2019-01-20T02:14:24.629Z,-4.77
2019-01-20T02:16:50.723Z,-4.76
2019-01-20T02:19:16.819Z,-4.74
2019-01-20T02:21:42.652Z,-4.76
2019-01-20T02:24:11.275Z,-4.81
2019-01-20T02:26:37.159Z,-4.80
2019-01-20T02:29:05.784Z,-4.80
2019-01-20T02:31:31.599Z,-4.69
2019-01-20T02:34:00.435Z,-4.60
2019-01-20T02:36:26.258Z,-4.66
2019-01-20T02:38:54.951Z,-4.71
2019-01-20T02:41:21.043Z,-4.74
2019-01-20T02:43:49.913Z,-4.69
2019-01-20T02:46:15.986Z,-4.65
2019-01-20T02:48:44.941Z,-4.57
2019-01-20T02:51:10.720Z,-4.56
2019-01-20T02:53:36.603Z,-4.55
2019-01-20T02:56:03.332Z,-4.55
2019-01-20T02:58:29.200Z,-4.52
2019-01-20T03:00:55.022Z,-4.55
2019-01-20T03:03:20.874Z,-4.47
2019-01-20T03:05:49.459Z,-4.55
2019-01-20T03:08:15.316Z,-4.66
2019-01-20T03:10:43.987Z,-4.68
2019-01-20T03:13:09.796Z,-4.54
2019-01-20T03:15:38.548Z,-4.47
2019-01-20T03:18:04.516Z,-4.41
2019-01-20T03:20:33.342Z,-4.38
2019-01-20T03:22:59.151Z,-4.31
2019-01-20T03:25:29.919Z,-4.29
2019-01-20T03:27:55.738Z,-4.26
2019-01-20T03:30:21.978Z,-4.34
2019-01-20T03:32:47.901Z,-4.27
2019-01-20T03:35:15.554Z,-4.27
2019-01-20T03:37:41.516Z,-4.28
2019-01-20T03:40:10.872Z,-4.27
2019-01-20T03:42:36.690Z,-4.32
2019-01-20T03:45:05.375Z,-4.30
2019-01-20T03:47:31.195Z,-4.34
2019-01-20T03:49:56.988Z,-4.39
2019-01-20T03:52:25.953Z,-4.36
2019-01-20T03:54:52.167Z,-4.31
2019-01-20T03:57:18.122Z,-4.14
2019-01-20T03:59:43.945Z,-4.09
2019-01-20T04:02:12.956Z,-4.22
2019-01-20T04:04:38.794Z,-4.24
2019-01-20T04:07:04.638Z,-4.20
2019-01-20T04:09:30.764Z,-4.15
2019-01-20T04:11:56.879Z,-4.10
2019-01-20T04:14:25.758Z,-4.03
2019-01-20T04:16:51.891Z,-3.95
2019-01-20T04:19:19.701Z,-3.92
2019-01-20T04:21:45.819Z,-3.94
2019-01-20T04:24:14.978Z,-3.99
2019-01-20T04:26:41.074Z,-4.06
2019-01-20T04:29:09.992Z,-3.99
2019-01-20T04:31:36.085Z,-3.96
2019-01-20T04:34:04.780Z,-3.86
2019-01-20T04:36:30.621Z,-3.90
2019-01-20T04:38:59.719Z,-3.79
2019-01-20T04:41:25.531Z,-3.77
2019-01-20T04:43:51.371Z,-3.79
2019-01-20T04:46:17.172Z,-3.77
2019-01-20T04:48:43.017Z,-3.72
2019-01-20T04:51:11.869Z,-3.74
2019-01-20T04:53:38.122Z,-3.71
2019-01-20T04:56:06.706Z,-3.74
2019-01-20T04:58:32.656Z,-3.64
2019-01-20T05:01:01.493Z,-3.59
2019-01-20T05:03:27.364Z,-3.48
2019-01-20T05:05:54.235Z,-3.45
2019-01-20T05:08:20.039Z,-3.39
2019-01-20T05:10:48.905Z,-3.44
2019-01-20T05:13:14.747Z,-3.41
2019-01-20T05:15:43.398Z,-3.41
2019-01-20T05:18:09.207Z,-3.35
2019-01-20T05:20:35.090Z,-3.31
2019-01-20T05:23:00.906Z,-3.31
2019-01-20T05:25:26.753Z,-3.38
2019-01-20T05:27:55.351Z,-3.38
2019-01-20T05:30:22.697Z,-3.31
2019-01-20T05:32:51.702Z,-3.28
2019-01-20T05:35:17.536Z,-3.23
2019-01-20T05:37:45.070Z,-3.23
2019-01-20T05:40:14.524Z,-3.28
2019-01-20T05:42:46.074Z,-3.29
2019-01-20T05:45:11.876Z,-3.31
2019-01-20T05:47:38.015Z,-3.28
2019-01-20T05:50:07.462Z,-3.30
2019-01-20T05:52:33.592Z,-3.45
2019-01-20T05:54:59.685Z,-3.34
2019-01-20T05:57:25.622Z,-3.36
2019-01-20T05:59:51.438Z,-3.33
2019-01-20T06:02:17.284Z,-3.34
2019-01-20T06:04:43.211Z,-3.32
2019-01-20T06:07:09.086Z,-3.30
2019-01-20T06:09:36.287Z,-3.30
2019-01-20T06:12:02.107Z,-3.32
2019-01-20T06:14:31.260Z,-3.30
2019-01-20T06:16:57.401Z,-3.33
2019-01-20T06:19:26.321Z,-3.32
2019-01-20T06:21:52.186Z,-3.32
2019-01-20T06:24:21.031Z,-3.35
2019-01-20T06:26:46.843Z,-3.29
2019-01-20T06:29:15.717Z,-3.24
2019-01-20T06:31:41.535Z,-3.22
2019-01-20T06:34:07.701Z,-3.25
2019-01-20T06:36:33.598Z,-3.24
2019-01-20T06:38:59.447Z,-3.28
2019-01-20T06:41:28.032Z,-3.23
2019-01-20T06:43:53.875Z,-3.08
2019-01-20T06:46:22.839Z,-3.10
2019-01-20T06:48:48.654Z,-3.08
2019-01-20T06:51:17.729Z,-3.15
2019-01-20T06:53:43.562Z,-3.11
2019-01-20T06:56:12.316Z,-3.10
2019-01-20T06:58:38.127Z,-3.15
2019-01-20T07:01:06.734Z,-3.08
2019-01-20T07:03:32.537Z,-3.07
2019-01-20T07:06:00.221Z,-3.09
2019-01-20T07:08:26.057Z,-3.14
2019-01-20T07:10:52.181Z,-3.21
2019-01-20T07:13:18.038Z,-3.31
2019-01-20T07:15:43.862Z,-3.29
2019-01-20T07:18:12.734Z,-3.16
2019-01-20T07:20:38.822Z,-3.04
2019-01-20T07:23:06.684Z,-3.00
2019-01-20T07:25:32.676Z,-2.92
2019-01-20T07:28:01.671Z,-2.83
2019-01-20T07:30:27.501Z,-2.85
2019-01-20T07:32:56.240Z,-2.86
2019-01-20T07:35:22.077Z,-2.77
2019-01-20T07:37:50.670Z,-2.77
2019-01-20T07:40:19.124Z,-2.70
2019-01-20T07:42:44.944Z,-2.64
2019-01-20T07:45:12.681Z,-3.06
2019-01-20T07:47:38.602Z,-2.49
2019-01-20T07:50:19.063Z,-2.46
2019-01-20T07:52:45.165Z,-2.42
2019-01-20T07:55:11.258Z,-2.28
2019-01-20T07:57:37.481Z,-2.19
2019-01-20T08:00:09.858Z,-2.13
2019-01-20T08:02:35.958Z,-2.25
2019-01-20T08:05:02.628Z,-2.43
2019-01-20T08:07:28.434Z,-2.39
2019-01-20T08:09:54.288Z,-2.19
2019-01-20T08:12:23.670Z,-2.20
2019-01-20T08:14:47.984Z,-2.08
2019-01-20T08:17:13.798Z,-2.02
2019-01-20T08:19:39.653Z,-1.92
2019-01-20T08:22:05.553Z,-1.91
2019-01-20T08:24:31.408Z,-1.94
2019-01-20T08:26:57.490Z,-1.83
2019-01-20T08:29:23.324Z,-1.72
2019-01-20T08:31:49.136Z,-1.73
2019-01-20T08:34:14.978Z,-1.84
2019-01-20T08:36:41.149Z,-1.81
2019-01-20T08:39:07.266Z,-1.80
2019-01-20T08:41:33.072Z,-1.66
2019-01-20T08:43:59.194Z,-1.48
2019-01-20T08:46:47.982Z,-1.35
2019-01-20T08:49:13.816Z,-1.23
2019-01-20T08:51:39.754Z,-1.21
2019-01-20T08:54:05.568Z,-1.12
2019-01-20T08:56:31.467Z,-1.00
2019-01-20T08:58:57.562Z,-1.00
2019-01-20T09:01:23.509Z,-0.84
2019-01-20T09:03:49.319Z,-0.62
2019-01-20T09:06:15.443Z,-0.56
2019-01-20T09:08:41.350Z,-0.45
2019-01-20T09:11:07.548Z,-0.34
2019-01-20T09:13:39.558Z,-0.32
2019-01-20T09:16:01.654Z,-0.45
2019-01-20T09:18:28.858Z,-0.30
2019-01-20T09:20:54.743Z,-0.25
2019-01-20T09:23:20.879Z,-0.38
2019-01-20T09:25:47.005Z,-0.32
2019-01-20T09:28:12.978Z,-0.34
2019-01-20T09:30:38.826Z,-0.40
2019-01-20T09:33:04.906Z,-0.50
2019-01-20T09:35:31.002Z,-0.39
2019-01-20T09:37:57.121Z,-0.24
2019-01-20T09:40:22.932Z,-0.16
2019-01-20T09:42:48.793Z,-0.07
2019-01-20T09:45:24.756Z,-0.15
2019-01-20T09:47:50.889Z,-0.18
2019-01-20T09:50:17.518Z,-0.04
2019-01-20T09:52:43.394Z,-0.04
2019-01-20T09:55:10.586Z,0.07
2019-01-20T09:57:36.427Z,0.16
2019-01-20T10:00:08.987Z,0.17
2019-01-20T10:02:34.984Z,0.19
2019-01-20T10:05:00.808Z,0.24
2019-01-20T10:07:26.763Z,0.12
2019-01-20T10:09:52.625Z,0.01
2019-01-20T10:12:18.709Z,-0.01
2019-01-20T10:14:44.562Z,0.12
2019-01-20T10:17:10.360Z,0.17
2019-01-20T10:19:36.209Z,0.28
2019-01-20T10:22:02.003Z,0.19
2019-01-20T10:24:27.861Z,0.35
2019-01-20T10:26:53.699Z,0.45
2019-01-20T10:29:19.541Z,0.57
2019-01-20T10:31:48.692Z,0.58
2019-01-20T10:34:14.531Z,0.39
2019-01-20T10:36:43.381Z,0.29
2019-01-20T10:39:10.891Z,0.15
2019-01-20T10:41:37.030Z,0.33
2019-01-20T10:44:02.837Z,0.39
2019-01-20T10:46:31.871Z,0.60
2019-01-20T10:48:57.668Z,0.77
2019-01-20T10:51:23.504Z,0.96
2019-01-20T10:53:53.152Z,1.03
2019-01-20T10:56:17.975Z,1.14
2019-01-20T10:58:43.828Z,1.22
2019-01-20T11:01:09.650Z,1.25
2019-01-20T11:03:38.614Z,1.35
2019-01-20T11:06:04.565Z,1.38
2019-01-20T11:08:33.620Z,1.48
2019-01-20T11:10:59.718Z,1.60
2019-01-20T11:13:29.004Z,1.61
2019-01-20T11:15:55.140Z,1.60
2019-01-20T11:18:24.016Z,1.59
2019-01-20T11:20:49.839Z,1.61
2019-01-20T11:23:20.428Z,1.60
2019-01-20T11:25:46.245Z,1.62
2019-01-20T11:28:12.070Z,1.47
2019-01-20T11:30:38.173Z,1.49
2019-01-20T11:33:04.137Z,1.65
2019-01-20T11:35:30.285Z,1.70
2019-01-20T11:37:56.223Z,1.64
2019-01-20T11:40:25.150Z,1.72
2019-01-20T11:42:51.009Z,1.72
2019-01-20T11:45:22.739Z,1.80
2019-01-20T11:47:48.793Z,1.76
2019-01-20T11:50:15.049Z,1.81
2019-01-20T11:52:40.850Z,1.76
2019-01-20T11:55:13.273Z,1.83
2019-01-20T11:57:39.613Z,1.77
2019-01-20T12:00:09.523Z,1.87
2019-01-20T12:02:35.631Z,1.85
2019-01-20T12:05:01.482Z,1.89
2019-01-20T12:07:27.619Z,1.89
2019-01-20T12:09:53.751Z,1.84
2019-01-20T12:12:19.584Z,1.77
2019-01-20T12:14:45.774Z,1.76
2019-01-20T12:17:11.622Z,1.72
2019-01-20T12:19:37.454Z,1.74
2019-01-20T12:22:03.276Z,1.75
2019-01-20T12:24:29.147Z,1.87
2019-01-20T12:26:59.576Z,1.88
2019-01-20T12:29:25.700Z,1.87
2019-01-20T12:31:54.898Z,1.84
2019-01-20T12:34:20.722Z,1.79
2019-01-20T12:36:49.517Z,1.76
2019-01-20T12:39:15.333Z,1.80
2019-01-20T12:41:41.182Z,1.81
2019-01-20T12:44:06.983Z,1.81
2019-01-20T12:46:32.851Z,1.79
2019-01-20T12:48:59.065Z,1.84
2019-01-20T12:51:28.616Z,1.85
2019-01-20T12:53:55.445Z,1.90
2019-01-20T12:56:21.505Z,1.85
2019-01-20T12:58:48.933Z,1.88
2019-01-20T13:01:14.744Z,1.99
2019-01-20T13:03:43.367Z,2.04
2019-01-20T13:06:09.294Z,2.01
2019-01-20T13:08:39.646Z,2.13
2019-01-20T13:11:05.745Z,2.18
2019-01-20T13:13:34.462Z,2.23
2019-01-20T13:16:00.615Z,2.25
2019-01-20T13:18:26.720Z,2.24
2019-01-20T13:20:52.550Z,2.27
2019-01-20T13:23:19.554Z,2.23
2019-01-20T13:25:45.413Z,2.16
2019-01-20T13:28:11.219Z,2.10
2019-01-20T13:30:39.829Z,2.04
2019-01-20T13:33:05.638Z,2.02
2019-01-20T13:35:34.237Z,1.95
2019-01-20T13:38:05.659Z,1.93
2019-01-20T13:40:38.031Z,1.93
2019-01-20T13:43:03.962Z,1.87
2019-01-20T13:45:29.885Z,1.89
2019-01-20T13:47:56.043Z,1.80
2019-01-20T13:50:21.962Z,1.85
2019-01-20T13:52:47.935Z,1.86
2019-01-20T13:55:15.126Z,1.83
2019-01-20T13:57:40.983Z,1.82
2019-01-20T14:00:21.173Z,1.78
2019-01-20T14:02:47.209Z,1.77
2019-01-20T14:05:13.386Z,1.67
2019-01-20T14:07:39.198Z,1.67
2019-01-20T14:10:19.269Z,1.79
2019-01-20T14:12:45.231Z,1.83
2019-01-20T14:15:13.441Z,1.84
2019-01-20T14:17:39.282Z,1.89
2019-01-20T14:20:32.900Z,1.92
2019-01-20T14:22:58.708Z,1.85
2019-01-20T14:25:28.870Z,1.79
2019-01-20T14:27:54.984Z,1.83
2019-01-20T14:30:23.109Z,1.76
2019-01-20T14:32:49.282Z,1.72
2019-01-20T14:35:15.378Z,1.63
2019-01-20T14:37:41.309Z,1.62
2019-01-20T14:40:17.625Z,1.56
2019-01-20T14:42:43.591Z,1.53
2019-01-20T14:45:12.613Z,1.54
2019-01-20T14:47:38.747Z,1.52
2019-01-20T14:50:09.317Z,1.49
2019-01-20T14:52:38.301Z,1.51
2019-01-20T14:55:11.220Z,1.49
2019-01-20T14:57:37.319Z,1.48
2019-01-20T15:00:15.605Z,1.42
2019-01-20T15:02:41.430Z,1.40
2019-01-20T15:05:07.482Z,1.35
2019-01-20T15:07:33.294Z,1.27
2019-01-20T15:09:59.129Z,0.97
2019-01-20T15:12:24.933Z,1.24
2019-01-20T15:14:50.796Z,1.26
2019-01-20T15:17:16.599Z,1.23
2019-01-20T15:19:43.959Z,1.19
2019-01-20T15:22:10.463Z,1.15
2019-01-20T15:24:40.105Z,1.13
2019-01-20T15:27:05.924Z,1.11
2019-01-20T15:29:31.774Z,1.09
2019-01-20T15:31:57.591Z,1.08
2019-01-20T15:34:23.657Z,1.02
2019-01-20T15:36:52.299Z,0.99
2019-01-20T15:39:18.157Z,0.92
2019-01-20T15:41:44.953Z,0.91
2019-01-20T15:44:11.101Z,0.89
2019-01-20T15:46:39.619Z,0.89
2019-01-20T15:49:25.607Z,0.89
2019-01-20T15:51:51.765Z,0.89
2019-01-20T15:54:17.917Z,0.87
2019-01-20T15:56:43.998Z,0.92
2019-01-20T15:59:09.856Z,0.89
2019-01-20T16:01:35.991Z,0.86
2019-01-20T16:04:01.818Z,0.77
2019-01-20T16:06:27.748Z,0.72
2019-01-20T16:08:53.558Z,0.65
2019-01-20T16:11:19.651Z,0.59
2019-01-20T16:13:45.519Z,0.55
2019-01-20T16:16:11.421Z,0.44
2019-01-20T16:18:37.271Z,0.38
2019-01-20T16:21:03.314Z,0.44
2019-01-20T16:23:29.456Z,0.44
2019-01-20T16:25:55.331Z,0.43
2019-01-20T16:28:21.470Z,0.47
2019-01-20T16:30:47.381Z,0.48
2019-01-20T16:33:14.215Z,0.48
2019-01-20T16:35:40.369Z,0.48
2019-01-20T16:38:11.098Z,0.51
2019-01-20T16:40:37.158Z,0.48
2019-01-20T16:43:03.317Z,0.47
2019-01-20T16:45:34.101Z,0.42
2019-01-20T16:48:00.403Z,0.42
2019-01-20T16:50:26.353Z,0.45
2019-01-20T16:52:54.739Z,0.34
2019-01-20T16:55:20.464Z,0.34
2019-01-20T16:57:46.502Z,0.36
2019-01-20T17:00:21.179Z,0.36
2019-01-20T17:02:47.192Z,0.32
2019-01-20T17:05:13.215Z,0.32
2019-01-20T17:07:39.473Z,0.28
2019-01-20T17:10:14.118Z,0.32
2019-01-20T17:12:40.244Z,0.32
2019-01-20T17:15:09.801Z,0.24
2019-01-20T17:17:35.664Z,0.24
2019-01-20T17:20:01.678Z,0.23
2019-01-20T17:22:49.987Z,0.17
2019-01-20T17:25:16.530Z,0.15
2019-01-20T17:27:42.667Z,0.23
2019-01-20T17:30:21.102Z,0.26
2019-01-20T17:32:47.262Z,0.28
2019-01-20T17:35:13.422Z,0.19
2019-01-20T17:37:39.369Z,0.18
2019-01-20T17:40:30.719Z,0.21
2019-01-20T17:42:56.704Z,0.21
2019-01-20T17:45:28.218Z,0.25
2019-01-20T17:47:57.398Z,0.27
2019-01-20T17:50:29.667Z,0.31
2019-01-20T17:52:55.483Z,0.27
2019-01-20T17:55:21.529Z,0.27
2019-01-20T17:57:47.384Z,0.25
2019-01-20T18:00:32.168Z,0.29
2019-01-20T18:02:58.413Z,0.35
2019-01-20T18:05:24.675Z,0.36
2019-01-20T18:07:50.770Z,0.37
2019-01-20T18:10:16.589Z,0.34
2019-01-20T18:12:42.711Z,0.35
2019-01-20T18:15:11.865Z,0.30
2019-01-20T18:17:37.963Z,0.30
2019-01-20T18:20:07.701Z,0.29
2019-01-20T18:25:41.178Z,0.36
2019-01-20T18:28:07.106Z,0.29
2019-01-20T18:30:32.954Z,0.31
2019-01-20T18:32:58.762Z,0.25
2019-01-20T18:35:25.912Z,0.21
2019-01-20T18:37:52.162Z,0.24
2019-01-20T18:40:19.428Z,0.25
2019-01-20T18:42:45.252Z,0.30
2019-01-20T18:45:13.400Z,0.31
2019-01-20T18:47:39.224Z,0.33
2019-01-20T18:50:11.350Z,0.25
2019-01-20T18:52:37.197Z,0.28
2019-01-20T18:55:06.587Z,0.29
2019-01-20T18:57:32.405Z,0.31
2019-01-20T18:59:58.212Z,0.32
2019-01-20T19:02:24.052Z,0.24
2019-01-20T19:04:49.907Z,0.23
2019-01-20T19:07:15.849Z,0.28
2019-01-20T19:09:41.686Z,0.33
2019-01-20T19:12:07.903Z,0.30
2019-01-20T19:14:33.717Z,0.30
2019-01-20T19:16:59.559Z,0.34
2019-01-20T19:19:25.387Z,0.24
2019-01-20T19:21:51.208Z,0.22
2019-01-20T19:24:17.170Z,0.29
2019-01-20T19:26:43.023Z,0.35
2019-01-20T19:29:08.817Z,0.36
2019-01-20T19:31:34.664Z,0.37
2019-01-20T19:34:00.487Z,0.38
2019-01-20T19:36:26.337Z,0.38
2019-01-20T19:38:52.201Z,0.32
2019-01-20T19:41:18.021Z,0.33
2019-01-20T19:43:43.871Z,0.27
2019-01-20T19:46:15.986Z,0.25
2019-01-20T19:48:37.466Z,0.23
2019-01-20T19:51:03.328Z,0.23
2019-01-20T19:53:29.184Z,0.29
2019-01-20T19:55:55.051Z,0.31
2019-01-20T19:58:20.877Z,0.30
2019-01-20T20:00:46.717Z,0.29
2019-01-20T20:03:12.651Z,0.29
2019-01-20T20:05:38.488Z,0.20
2019-01-20T20:08:04.436Z,0.24
2019-01-20T20:10:30.264Z,0.26
2019-01-20T20:12:56.216Z,0.28
2019-01-20T20:15:23.618Z,0.26
2019-01-20T20:17:49.587Z,0.22
2019-01-20T20:20:16.757Z,0.17
2019-01-20T20:22:42.625Z,0.21
2019-01-20T20:25:11.056Z,0.17
2019-01-20T20:27:36.895Z,0.12
2019-01-20T20:30:11.971Z,0.07
2019-01-20T20:32:37.779Z,0.21
2019-01-20T20:35:06.775Z,0.21
2019-01-20T20:37:32.646Z,0.30
2019-01-20T20:39:58.491Z,0.32
2019-01-20T20:42:24.317Z,0.30
2019-01-20T20:44:50.455Z,0.26
2019-01-20T20:47:16.277Z,0.28
2019-01-20T20:49:42.115Z,0.27
2019-01-20T20:52:08.204Z,0.29
2019-01-20T20:54:35.830Z,0.21
2019-01-20T20:57:01.804Z,0.14
2019-01-20T20:59:27.910Z,0.14
2019-01-20T21:01:53.738Z,0.30
2019-01-20T21:04:19.575Z,0.30
2019-01-20T21:06:45.396Z,0.31
2019-01-20T21:09:11.318Z,0.22
2019-01-20T21:11:37.295Z,0.25
2019-01-20T21:14:03.517Z,0.25
2019-01-20T21:16:29.674Z,0.08
2019-01-20T21:18:55.500Z,0.08
2019-01-20T21:21:21.648Z,0.12
2019-01-20T21:23:47.503Z,0.12
2019-01-20T21:26:14.762Z,0.04
2019-01-20T21:28:40.714Z,0.00
2019-01-20T21:31:06.837Z,0.05
2019-01-20T21:33:32.682Z,0.01
2019-01-20T21:35:58.488Z,-0.29
2019-01-20T21:38:24.335Z,-0.03
2019-01-20T21:40:50.185Z,-0.12
2019-01-20T21:43:16.003Z,-0.10
2019-01-20T21:45:41.836Z,-0.14
2019-01-20T21:48:07.680Z,-0.10
2019-01-20T21:50:33.502Z,-0.12
2019-01-20T21:52:59.343Z,-0.10
2019-01-20T21:55:25.197Z,-0.11
2019-01-20T21:57:51.277Z,-0.09
2019-01-20T22:00:23.280Z,-0.09
2019-01-20T22:02:49.115Z,-0.06
2019-01-20T22:05:15.369Z,-0.07
2019-01-20T22:07:41.179Z,-0.07
2019-01-20T22:10:18.446Z,-0.20
2019-01-20T22:12:44.658Z,-0.13
2019-01-20T22:15:11.499Z,-0.03
2019-01-20T22:17:37.588Z,-0.03
2019-01-20T22:20:07.284Z,-0.09
2019-01-20T22:22:34.400Z,-0.12
2019-01-20T22:25:00.522Z,-0.10
2019-01-20T22:27:26.399Z,-0.07
2019-01-20T22:29:52.182Z,-0.07
2019-01-20T22:32:18.054Z,-0.08
2019-01-20T22:34:44.194Z,-0.14
2019-01-20T22:37:10.043Z,-0.14
2019-01-20T22:39:35.901Z,-0.10
2019-01-20T22:42:01.736Z,-0.05
2019-01-20T22:44:27.590Z,-0.02
2019-01-20T22:47:00.040Z,-0.10
2019-01-20T22:49:21.530Z,-0.12
2019-01-20T22:51:50.406Z,-0.12
2019-01-20T22:54:16.507Z,-0.08
2019-01-20T22:56:45.724Z,-0.09
2019-01-20T22:59:11.544Z,-0.20
2019-01-20T23:01:37.482Z,-0.21
2019-01-20T23:04:03.447Z,-0.27
2019-01-20T23:06:29.647Z,-0.19
2019-01-20T23:08:55.429Z,-0.25
2019-01-20T23:11:21.542Z,-0.25
2019-01-20T23:13:50.709Z,-0.31
2019-01-20T23:16:16.849Z,-0.27
2019-01-20T23:18:44.251Z,-0.29
2019-01-20T23:21:10.094Z,-0.35
2019-01-20T23:23:40.721Z,-0.34
2019-01-20T23:26:06.597Z,-0.43
2019-01-20T23:28:34.149Z,-0.38
2019-01-20T23:31:00.072Z,-0.38
2019-01-20T23:33:28.655Z,-0.42
2019-01-20T23:35:54.534Z,-0.46
2019-01-20T23:38:23.082Z,-0.54
2019-01-20T23:40:49.229Z,-0.49
2019-01-20T23:43:15.073Z,-0.63
2019-01-20T23:45:41.165Z,-0.65
2019-01-20T23:48:07.288Z,-0.60
2019-01-20T23:50:36.274Z,-0.56
2019-01-20T23:53:02.089Z,-0.58
2019-01-20T23:55:30.699Z,-0.62
2019-01-20T23:57:56.547Z,-0.73
